createdAt,value
2024-01-07T00:00:18.589Z,-24.30
2024-01-07T00:03:22.610Z,-24.37
2024-01-07T00:06:26.864Z,-24.42
2024-01-07T00:09:30.559Z,-24.26
2024-01-07T00:12:34.603Z,-24.13
2024-01-07T00:15:38.556Z,-23.86
2024-01-07T00:18:42.789Z,-24.04
2024-01-07T00:21:46.635Z,-23.90
2024-01-07T00:24:50.845Z,-23.70
2024-01-07T00:27:57.118Z,-23.54
2024-01-07T00:31:01.225Z,-23.52
2024-01-07T00:34:05.138Z,-23.57
2024-01-07T00:37:09.348Z,-23.50
2024-01-07T00:40:13.385Z,-23.71
2024-01-07T00:43:17.567Z,-23.92
2024-01-07T00:46:21.266Z,-24.02
2024-01-07T00:49:24.836Z,-23.78
2024-01-07T00:52:28.468Z,-23.58
2024-01-07T00:55:32.698Z,-23.37
2024-01-07T00:58:38.367Z,-23.08
2024-01-07T01:01:42.701Z,-22.76
2024-01-07T01:04:46.606Z,-22.78
2024-01-07T01:07:50.741Z,-22.86
2024-01-07T01:10:54.296Z,-22.82
2024-01-07T01:13:58.804Z,-22.81
2024-01-07T01:17:02.520Z,-22.94
2024-01-07T01:20:05.860Z,-22.64
2024-01-07T01:23:09.829Z,-22.55
2024-01-07T01:26:13.798Z,-22.67
2024-01-07T01:29:17.481Z,-22.48
2024-01-07T01:32:20.424Z,-22.45
2024-01-07T01:35:24.528Z,-22.44
2024-01-07T01:38:27.658Z,-22.14
2024-01-07T01:41:31.663Z,-21.98
2024-01-07T01:44:35.999Z,-21.86
2024-01-07T01:47:39.744Z,-21.96
2024-01-07T01:50:43.166Z,-21.81
2024-01-07T01:53:48.078Z,-21.47
2024-01-07T01:56:51.461Z,-21.22
2024-01-07T01:59:55.717Z,-21.05
2024-01-07T02:02:59.486Z,-21.10
2024-01-07T02:06:03.728Z,-21.26
2024-01-07T02:09:07.362Z,-21.36
2024-01-07T02:12:13.523Z,-21.42
2024-01-07T02:15:17.158Z,-21.56
2024-01-07T02:18:21.538Z,-21.23
2024-01-07T02:21:24.843Z,-21.23
2024-01-07T02:24:28.930Z,-21.32
2024-01-07T02:27:31.930Z,-21.06
2024-01-07T02:30:35.181Z,-20.82
2024-01-07T02:33:39.465Z,-20.52
2024-01-07T02:36:43.949Z,-20.32
2024-01-07T02:39:53.263Z,-20.29
2024-01-07T02:43:04.659Z,-20.35
2024-01-07T02:46:09.621Z,-20.11
2024-01-07T02:49:15.504Z,-20.05
2024-01-07T02:52:19.214Z,-20.37
2024-01-07T02:55:23.276Z,-20.57
2024-01-07T02:58:27.149Z,-20.99
2024-01-07T03:01:30.691Z,-21.10
2024-01-07T03:04:34.587Z,-21.01
2024-01-07T03:07:40.332Z,-21.05
2024-01-07T03:10:43.386Z,-20.96
2024-01-07T03:13:47.022Z,-20.77
2024-01-07T03:16:50.944Z,-20.36
2024-01-07T03:19:54.483Z,-20.51
2024-01-07T03:23:22.229Z,-20.60
2024-01-07T03:26:25.822Z,-20.47
2024-01-07T03:29:29.055Z,-20.40
2024-01-07T03:32:32.951Z,-20.37
2024-01-07T03:35:36.664Z,-20.07
2024-01-07T03:38:41.315Z,-19.86
2024-01-07T03:41:44.894Z,-19.65
2024-01-07T03:44:48.500Z,-19.27
2024-01-07T03:47:52.223Z,-18.65
2024-01-07T03:50:58.560Z,-18.73
2024-01-07T03:54:01.458Z,-19.08
2024-01-07T03:57:04.581Z,-19.13
2024-01-07T04:00:08.192Z,-19.26
2024-01-07T04:03:11.900Z,-19.35
2024-01-07T04:06:15.621Z,-19.31
2024-01-07T04:09:19.839Z,-19.10
2024-01-07T04:12:22.727Z,-19.15
2024-01-07T04:15:26.891Z,-19.12
2024-01-07T04:18:30.786Z,-19.13
2024-01-07T04:21:34.259Z,-19.09
2024-01-07T04:24:38.144Z,-18.83
2024-01-07T04:27:42.352Z,-18.56
2024-01-07T04:30:46.181Z,-18.67
2024-01-07T04:33:50.420Z,-18.38
2024-01-07T04:36:54.209Z,-18.56
2024-01-07T04:39:58.805Z,-18.56
2024-01-07T04:43:02.899Z,-18.53
2024-01-07T04:46:07.393Z,-18.22
2024-01-07T04:49:11.193Z,-18.00
2024-01-07T04:52:15.286Z,-18.19
2024-01-07T04:55:20.000Z,-18.20
2024-01-07T04:58:48.578Z,-18.08
2024-01-07T05:01:51.641Z,-18.15
2024-01-07T05:04:55.758Z,-18.17
2024-01-07T05:08:00.884Z,-18.09
2024-01-07T05:11:03.966Z,-17.92
2024-01-07T05:14:07.253Z,-17.48
2024-01-07T05:17:12.027Z,-17.41
2024-01-07T05:20:17.415Z,-17.29
2024-01-07T05:23:21.218Z,-17.53
2024-01-07T05:26:24.612Z,-17.43
2024-01-07T05:29:29.846Z,-17.40
2024-01-07T05:32:33.946Z,-17.72
2024-01-07T05:35:37.736Z,-17.98
2024-01-07T05:38:43.125Z,-18.09
2024-01-07T05:41:46.579Z,-18.09
2024-01-07T05:44:50.074Z,-18.08
2024-01-07T05:47:53.753Z,-18.07
2024-01-07T05:50:56.983Z,-17.89
2024-01-07T05:54:00.090Z,-17.83
2024-01-07T05:57:07.758Z,-17.69
2024-01-07T06:00:13.013Z,-17.79
2024-01-07T06:03:16.786Z,-17.91
2024-01-07T06:06:20.787Z,-17.92
2024-01-07T06:09:37.714Z,-17.94
2024-01-07T06:12:40.791Z,-18.08
2024-01-07T06:15:43.955Z,-17.98
2024-01-07T06:18:47.346Z,-17.93
2024-01-07T06:21:51.010Z,-18.03
2024-01-07T06:24:54.693Z,-18.10
2024-01-07T06:27:58.912Z,-18.02
2024-01-07T06:31:05.780Z,-17.94
2024-01-07T06:34:09.737Z,-17.98
2024-01-07T06:37:14.037Z,-18.09
2024-01-07T06:40:17.487Z,-18.11
2024-01-07T06:43:21.151Z,-17.95
2024-01-07T06:46:24.286Z,-18.02
2024-01-07T06:49:28.037Z,-18.15
2024-01-07T06:52:31.438Z,-18.20
2024-01-07T06:55:34.904Z,-18.01
2024-01-07T06:58:38.774Z,-17.86
2024-01-07T07:01:42.522Z,-17.75
2024-01-07T07:04:51.597Z,-17.76
2024-01-07T07:07:55.905Z,-17.67
2024-01-07T07:11:13.706Z,-17.78
2024-01-07T07:14:17.633Z,-17.78
2024-01-07T07:17:24.375Z,-17.91
2024-01-07T07:20:28.621Z,-18.10
2024-01-07T07:23:33.573Z,-18.11
2024-01-07T07:26:42.593Z,-18.05
2024-01-07T07:29:46.406Z,-17.79
2024-01-07T07:32:59.006Z,-17.81
2024-01-07T07:36:03.671Z,-17.90
2024-01-07T07:39:06.818Z,-17.85
2024-01-07T07:42:12.278Z,-17.92
2024-01-07T07:45:16.197Z,-18.18
2024-01-07T07:48:22.896Z,-18.23
2024-01-07T07:51:26.785Z,-18.07
2024-01-07T07:58:02.581Z,-18.32
2024-01-07T08:01:17.536Z,-18.56
2024-01-07T08:04:46.356Z,-18.76
2024-01-07T08:07:49.897Z,-19.05
2024-01-07T08:10:53.757Z,-19.26
2024-01-07T08:13:57.755Z,-19.40
2024-01-07T08:17:06.339Z,-19.50
2024-01-07T08:20:11.042Z,-19.59
2024-01-07T08:23:14.878Z,-19.69
2024-01-07T08:26:22.592Z,-19.77
2024-01-07T08:29:26.234Z,-19.77
2024-01-07T08:32:30.320Z,-19.78
2024-01-07T08:35:33.515Z,-19.82
2024-01-07T08:38:37.682Z,-19.80
2024-01-07T08:41:40.664Z,-19.72
2024-01-07T08:44:44.669Z,-19.70
2024-01-07T08:47:48.928Z,-19.74
2024-01-07T08:50:52.709Z,-19.71
2024-01-07T08:53:57.492Z,-19.68
2024-01-07T08:57:01.280Z,-19.84
2024-01-07T09:00:06.399Z,-19.79
2024-01-07T09:03:11.718Z,-19.74
2024-01-07T09:06:15.571Z,-19.96
2024-01-07T09:09:18.938Z,-20.13
2024-01-07T09:12:21.966Z,-20.00
2024-01-07T09:15:25.264Z,-19.84
2024-01-07T09:18:28.425Z,-19.80
2024-01-07T09:21:32.204Z,-19.86
2024-01-07T09:25:00.137Z,-20.04
2024-01-07T09:28:07.110Z,-20.19
2024-01-07T09:31:11.077Z,-20.30
2024-01-07T09:34:14.284Z,-20.33
2024-01-07T09:37:18.763Z,-20.36
2024-01-07T09:40:21.802Z,-20.40
2024-01-07T09:43:27.935Z,-20.35
2024-01-07T09:46:39.630Z,-20.33
2024-01-07T09:49:44.952Z,-20.41
2024-01-07T09:53:03.940Z,-20.48
2024-01-07T09:56:27.160Z,-20.44
2024-01-07T09:59:32.363Z,-20.50
2024-01-07T10:02:37.118Z,-20.54
2024-01-07T10:05:50.271Z,-20.50
2024-01-07T10:08:53.964Z,-20.45
2024-01-07T10:15:51.005Z,-20.62
2024-01-07T10:18:55.336Z,-20.56
2024-01-07T10:22:03.013Z,-20.58
2024-01-07T10:25:08.262Z,-20.64
2024-01-07T10:28:13.202Z,-20.59
2024-01-07T10:31:16.992Z,-20.60
2024-01-07T10:34:23.116Z,-20.63
2024-01-07T10:37:27.998Z,-20.67
2024-01-07T10:40:32.780Z,-20.77
2024-01-07T10:43:38.149Z,-20.77
2024-01-07T10:46:42.133Z,-20.71
2024-01-07T10:49:49.324Z,-20.73
2024-01-07T10:52:59.998Z,-20.92
2024-01-07T10:56:10.314Z,-20.97
2024-01-07T10:59:13.322Z,-20.97
2024-01-07T11:02:17.646Z,-20.89
2024-01-07T11:05:49.706Z,-20.81
2024-01-07T11:09:00.482Z,-20.77
2024-01-07T11:12:06.189Z,-20.77
2024-01-07T11:15:10.502Z,-20.81
2024-01-07T11:18:22.064Z,-20.66
2024-01-07T11:21:28.390Z,-20.70
2024-01-07T11:24:40.949Z,-20.77
2024-01-07T11:27:45.133Z,-20.80
2024-01-07T11:30:51.423Z,-20.86
2024-01-07T11:33:57.190Z,-20.98
2024-01-07T11:37:01.002Z,-20.91
2024-01-07T11:40:10.367Z,-20.75
2024-01-07T11:43:13.868Z,-20.82
2024-01-07T11:46:17.979Z,-20.75
2024-01-07T11:49:21.697Z,-20.80
2024-01-07T11:52:25.209Z,-21.09
2024-01-07T11:55:29.626Z,-21.15
2024-01-07T11:58:33.766Z,-21.13
2024-01-07T12:01:36.908Z,-21.31
2024-01-07T12:04:40.090Z,-21.38
2024-01-07T12:07:43.995Z,-21.37
2024-01-07T12:10:48.405Z,-21.37
2024-01-07T12:13:52.382Z,-21.47
2024-01-07T12:16:57.919Z,-21.30
2024-01-07T12:20:02.618Z,-21.36
2024-01-07T12:23:12.700Z,-21.50
2024-01-07T12:26:15.950Z,-21.28
2024-01-07T12:29:20.410Z,-21.30
2024-01-07T12:32:23.731Z,-21.41
2024-01-07T12:35:29.396Z,-21.41
2024-01-07T12:38:32.378Z,-21.45
2024-01-07T12:41:36.860Z,-21.55
2024-01-07T12:44:40.627Z,-21.61
2024-01-07T12:47:44.720Z,-21.44
2024-01-07T12:50:48.596Z,-21.27
2024-01-07T12:53:52.759Z,-21.38
2024-01-07T12:56:56.464Z,-21.46
2024-01-07T13:00:00.780Z,-21.47
2024-01-07T13:03:06.122Z,-21.58
2024-01-07T13:06:10.553Z,-21.65
2024-01-07T13:09:14.332Z,-21.60
2024-01-07T13:12:18.317Z,-21.66
2024-01-07T13:15:24.991Z,-21.71
2024-01-07T13:18:28.989Z,-21.64
2024-01-07T13:21:33.460Z,-21.50
2024-01-07T13:24:39.768Z,-21.59
2024-01-07T13:27:46.392Z,-21.73
2024-01-07T13:30:50.125Z,-21.79
2024-01-07T13:33:54.052Z,-21.92
2024-01-07T13:36:58.213Z,-22.02
2024-01-07T13:40:02.914Z,-21.97
2024-01-07T13:43:09.634Z,-22.16
2024-01-07T13:46:13.688Z,-22.11
2024-01-07T13:49:17.921Z,-21.99
2024-01-07T13:52:21.797Z,-21.91
2024-01-07T13:55:26.104Z,-21.94
2024-01-07T13:58:30.190Z,-21.92
2024-01-07T14:01:34.550Z,-22.03
2024-01-07T14:04:38.505Z,-22.02
2024-01-07T14:07:41.848Z,-21.86
2024-01-07T14:10:46.327Z,-21.57
2024-01-07T14:13:50.028Z,-21.45
2024-01-07T14:16:54.046Z,-21.44
2024-01-07T14:19:57.075Z,-21.41
2024-01-07T14:23:01.043Z,-21.39
2024-01-07T14:26:05.246Z,-21.60
2024-01-07T14:29:16.154Z,-21.72
2024-01-07T14:32:22.512Z,-21.76
2024-01-07T14:35:30.030Z,-22.03
2024-01-07T14:38:35.199Z,-22.23
2024-01-07T14:41:38.292Z,-22.00
2024-01-07T14:44:48.067Z,-21.79
2024-01-07T14:47:55.384Z,-21.98
2024-01-07T14:50:58.994Z,-21.99
2024-01-07T14:54:03.003Z,-21.79
2024-01-07T14:57:06.293Z,-21.63
2024-01-07T15:00:10.540Z,-21.91
2024-01-07T15:03:13.618Z,-21.86
2024-01-07T15:06:19.309Z,-21.99
2024-01-07T15:09:23.004Z,-21.83
2024-01-07T15:12:26.960Z,-21.87
2024-01-07T15:15:31.579Z,-21.95
2024-01-07T15:18:38.552Z,-22.19
2024-01-07T15:21:42.762Z,-22.26
2024-01-07T15:24:50.033Z,-22.29
2024-01-07T15:27:53.952Z,-22.47
2024-01-07T15:30:58.461Z,-22.74
2024-01-07T15:34:03.586Z,-22.76
2024-01-07T15:37:07.902Z,-22.75
2024-01-07T15:40:11.802Z,-22.68
2024-01-07T15:43:15.420Z,-22.75
2024-01-07T15:46:42.941Z,-22.77
2024-01-07T15:49:46.120Z,-22.80
2024-01-07T15:52:51.015Z,-22.64
2024-01-07T15:55:55.874Z,-22.87
2024-01-07T15:58:59.206Z,-22.77
2024-01-07T16:02:03.456Z,-22.98
2024-01-07T16:05:07.961Z,-23.41
2024-01-07T16:08:14.309Z,-23.62
2024-01-07T16:11:19.638Z,-23.82
2024-01-07T16:14:26.428Z,-24.06
2024-01-07T16:17:29.807Z,-24.15
2024-01-07T16:20:33.843Z,-23.85
2024-01-07T16:23:38.849Z,-24.00
2024-01-07T16:26:45.315Z,-23.92
2024-01-07T16:29:48.985Z,-23.75
2024-01-07T16:32:52.651Z,-23.54
2024-01-07T16:35:56.811Z,-23.48
2024-01-07T16:39:02.749Z,-23.51
2024-01-07T16:42:06.968Z,-23.55
2024-01-07T16:45:10.629Z,-23.40
2024-01-07T16:50:13.146Z,-23.37
2024-01-07T16:51:41.911Z,-23.62
2024-01-07T16:54:48.509Z,-24.02
2024-01-07T16:57:52.326Z,-23.99
2024-01-07T17:01:01.165Z,-23.83
2024-01-07T17:04:04.303Z,-23.63
2024-01-07T17:07:08.397Z,-23.71
2024-01-07T17:10:11.657Z,-23.69
2024-01-07T17:13:16.039Z,-23.65
2024-01-07T17:16:19.030Z,-23.52
2024-01-07T17:19:25.450Z,-23.44
2024-01-07T17:22:29.135Z,-23.57
2024-01-07T17:25:33.404Z,-23.72
2024-01-07T17:28:37.364Z,-23.87
2024-01-07T17:31:41.038Z,-23.81
2024-01-07T17:34:44.191Z,-23.68
2024-01-07T17:37:48.073Z,-23.51
2024-01-07T17:40:51.818Z,-23.85
2024-01-07T17:43:55.588Z,-24.15
2024-01-07T17:46:59.384Z,-24.21
2024-01-07T17:50:26.076Z,-24.09
2024-01-07T17:53:29.818Z,-23.96
2024-01-07T17:56:35.428Z,-23.97
2024-01-07T17:59:40.797Z,-24.31
2024-01-07T18:03:00.402Z,-24.35
2024-01-07T18:06:05.715Z,-24.42
2024-01-07T18:09:09.504Z,-24.57
2024-01-07T18:12:15.811Z,-24.77
2024-01-07T18:15:19.549Z,-24.85
2024-01-07T18:18:25.531Z,-24.82
2024-01-07T18:21:32.637Z,-24.65
2024-01-07T18:24:36.707Z,-24.42
2024-01-07T18:27:40.451Z,-24.57
2024-01-07T18:30:45.051Z,-24.72
2024-01-07T18:33:48.413Z,-24.81
2024-01-07T18:36:52.253Z,-24.68
2024-01-07T18:39:55.171Z,-24.82
2024-01-07T18:43:00.503Z,-24.97
2024-01-07T18:46:04.200Z,-24.77
2024-01-07T18:49:07.371Z,-24.73
2024-01-07T18:52:12.666Z,-24.85
2024-01-07T18:55:16.435Z,-25.21
2024-01-07T18:58:19.902Z,-25.36
2024-01-07T19:01:23.784Z,-25.47
2024-01-07T19:04:28.576Z,-25.12
2024-01-07T19:07:32.428Z,-25.17
2024-01-07T19:10:36.398Z,-25.20
2024-01-07T19:13:39.301Z,-25.16
2024-01-07T19:16:43.275Z,-24.94
2024-01-07T19:19:46.653Z,-24.77
2024-01-07T19:22:49.601Z,-24.74
2024-01-07T19:25:53.408Z,-24.47
2024-01-07T19:28:57.844Z,-24.22
2024-01-07T19:32:01.751Z,-24.16
2024-01-07T19:35:07.778Z,-24.09
2024-01-07T19:38:11.688Z,-24.02
2024-01-07T19:41:25.202Z,-24.10
2024-01-07T19:44:28.975Z,-24.30
2024-01-07T19:47:33.406Z,-24.20
2024-01-07T19:50:37.325Z,-24.32
2024-01-07T19:53:45.226Z,-24.33
2024-01-07T19:57:09.171Z,-24.54
2024-01-07T20:00:18.318Z,-24.66
2024-01-07T20:03:21.429Z,-24.60
2024-01-07T20:06:25.780Z,-24.49
2024-01-07T20:09:29.314Z,-24.48
2024-01-07T20:12:33.864Z,-24.48
2024-01-07T20:15:37.914Z,-24.30
2024-01-07T20:18:41.588Z,-24.28
2024-01-07T20:21:44.629Z,-24.27
2024-01-07T20:24:48.358Z,-24.14
2024-01-07T20:27:54.918Z,-24.30
2024-01-07T20:30:58.427Z,-24.46
2024-01-07T20:34:29.656Z,-24.47
2024-01-07T20:37:33.803Z,-24.56
2024-01-07T20:40:45.180Z,-24.35
2024-01-07T20:43:51.685Z,-24.28
2024-01-07T20:47:00.311Z,-24.15
2024-01-07T20:50:10.223Z,-24.12
2024-01-07T20:53:41.466Z,-24.15
2024-01-07T20:56:50.598Z,-24.00
2024-01-07T20:59:53.717Z,-24.12
2024-01-07T21:02:57.621Z,-24.17
2024-01-07T21:06:04.277Z,-24.31
2024-01-07T21:09:19.073Z,-24.41
2024-01-07T21:12:23.224Z,-24.62
2024-01-07T21:15:30.096Z,-24.81
2024-01-07T21:18:34.383Z,-25.04
2024-01-07T21:21:38.393Z,-25.12
2024-01-07T21:24:42.498Z,-25.15
2024-01-07T21:27:46.089Z,-25.14
2024-01-07T21:30:49.054Z,-25.19
2024-01-07T21:33:52.183Z,-25.32
2024-01-07T21:36:56.595Z,-25.35
2024-01-07T21:39:59.585Z,-25.35
2024-01-07T21:43:09.332Z,-25.27
2024-01-07T21:46:12.671Z,-25.28
2024-01-07T21:49:16.550Z,-25.31
2024-01-07T21:52:27.557Z,-25.44
2024-01-07T21:55:31.268Z,-25.19
2024-01-07T21:58:35.323Z,-25.14
2024-01-07T22:01:38.509Z,-25.11
2024-01-07T22:04:42.019Z,-25.05
2024-01-07T22:07:45.309Z,-24.81
2024-01-07T22:10:48.963Z,-24.76
2024-01-07T22:13:53.279Z,-24.77
2024-01-07T22:16:56.387Z,-24.78
2024-01-07T22:19:59.669Z,-24.73
2024-01-07T22:23:03.102Z,-24.62
2024-01-07T22:26:06.724Z,-24.39
2024-01-07T22:29:12.076Z,-24.33
2024-01-07T22:32:16.155Z,-24.48
2024-01-07T22:35:19.415Z,-24.59
2024-01-07T22:38:24.383Z,-24.44
2024-01-07T22:41:27.458Z,-24.46
2024-01-07T22:44:30.788Z,-24.52
2024-01-07T22:47:34.221Z,-24.63
2024-01-07T22:50:38.225Z,-24.68
2024-01-07T22:53:41.413Z,-24.74
2024-01-07T22:56:46.166Z,-24.66
2024-01-07T22:59:50.163Z,-24.68
2024-01-07T23:02:55.929Z,-24.84
2024-01-07T23:05:59.529Z,-24.91
2024-01-07T23:09:03.214Z,-24.99
2024-01-07T23:12:06.417Z,-25.20
2024-01-07T23:15:10.554Z,-25.25
2024-01-07T23:18:14.217Z,-25.44
2024-01-07T23:21:17.467Z,-25.53
2024-01-07T23:24:21.224Z,-25.55
2024-01-07T23:27:26.820Z,-25.89
2024-01-07T23:30:29.820Z,-26.02
2024-01-07T23:33:33.782Z,-26.15
2024-01-07T23:36:37.884Z,-26.11
2024-01-07T23:39:40.890Z,-26.07
2024-01-07T23:42:44.429Z,-26.00
2024-01-07T23:45:47.840Z,-25.77
2024-01-07T23:48:51.688Z,-25.76
2024-01-07T23:51:55.132Z,-25.59
2024-01-07T23:54:58.134Z,-25.59
2024-01-07T23:58:02.227Z,-25.38
